Time;durP1;ratioP1;P1;durP2;ratioP2;P2;SDS_P1;SDS_P2;PMS_P1;PMS_P2;Temp;Humidity;BMP_temperature;BMP_pressure;BME280_temperature;BME280_humidity;BME280_pressure;Samples;Min_cycle;Max_cycle;Signal;HPM_P1;HPM_P2
2023/12/06 00:01:54;;;;;;;0.40;0.40;;;4.40;99.90;;;;;;4964661;28;20197;-61
2023/12/06 00:04:19;;;;;;;0.30;0.30;;;4.50;99.90;;;;;;4983202;28;20180;-61
2023/12/06 00:06:45;;;;;;;0.30;0.30;;;4.50;99.90;;;;;;4987328;28;20200;-61
2023/12/06 00:09:11;;;;;;;0.40;0.40;;;4.50;99.90;;;;;;4974911;28;20168;-60
2023/12/06 00:11:39;;;;;;;0.40;0.40;;;4.40;99.90;;;;;;4991592;28;20466;-61
2023/12/06 00:14:05;;;;;;;0.40;0.40;;;4.30;99.90;;;;;;4992602;28;20550;-61
2023/12/06 00:16:32;;;;;;;0.40;0.40;;;4.20;99.90;;;;;;4991115;28;20259;-61
2023/12/06 00:18:58;;;;;;;0.30;0.30;;;4.20;99.90;;;;;;4992609;28;20169;-61
2023/12/06 00:21:24;;;;;;;0.40;0.40;;;4.20;99.90;;;;;;4987183;28;20212;-61
2023/12/06 00:23:50;;;;;;;0.40;0.40;;;4.00;99.90;;;;;;4968913;28;20184;-62
2023/12/06 00:26:15;;;;;;;0.40;0.40;;;4.00;99.90;;;;;;4991860;28;20511;-62
2023/12/06 00:28:41;;;;;;;0.33;0.33;;;4.10;99.90;;;;;;4991599;28;20179;-62
2023/12/06 00:31:07;;;;;;;0.50;0.50;;;4.10;99.90;;;;;;4991491;28;20279;-62
2023/12/06 00:33:32;;;;;;;0.40;0.40;;;4.20;99.90;;;;;;4992271;28;20169;-62
2023/12/06 00:35:58;;;;;;;0.30;0.30;;;4.30;99.90;;;;;;4992297;28;20180;-62
2023/12/06 00:38:23;;;;;;;1.23;0.70;;;4.30;99.90;;;;;;4992195;28;20176;-61
2023/12/06 00:40:49;;;;;;;0.87;0.80;;;4.30;99.90;;;;;;4991673;28;20200;-62
2023/12/06 00:43:14;;;;;;;0.40;0.40;;;4.30;99.90;;;;;;4992123;28;20642;-62
2023/12/06 00:45:40;;;;;;;0.30;0.30;;;4.30;99.90;;;;;;4992053;28;20197;-62
2023/12/06 00:48:06;;;;;;;0.30;0.30;;;4.20;99.90;;;;;;4992332;28;20227;-62
2023/12/06 00:50:31;;;;;;;0.60;0.60;;;4.30;99.90;;;;;;4991683;28;20196;-62
2023/12/06 00:52:57;;;;;;;0.40;0.40;;;4.40;99.90;;;;;;4992043;28;20218;-62
2023/12/06 00:55:23;;;;;;;0.30;0.30;;;4.40;99.90;;;;;;4992101;28;20183;-62
2023/12/06 00:57:48;;;;;;;0.40;0.40;;;4.40;99.90;;;;;;4992074;28;20172;-59
2023/12/06 01:00:14;;;;;;;0.40;0.40;;;4.40;99.90;;;;;;4991548;28;20215;-59
2023/12/06 01:02:40;;;;;;;0.40;0.40;;;4.40;99.90;;;;;;4992182;28;20176;-61
2023/12/06 01:05:06;;;;;;;0.70;0.50;;;4.40;99.90;;;;;;4991797;28;20721;-62
2023/12/06 01:07:32;;;;;;;0.40;0.40;;;4.30;99.90;;;;;;4992060;28;20231;-61
2023/12/06 01:09:57;;;;;;;0.30;0.30;;;4.10;99.90;;;;;;4991559;28;20677;-62
2023/12/06 01:12:23;;;;;;;0.40;0.40;;;4.10;99.90;;;;;;4992255;28;20565;-61
2023/12/06 01:14:49;;;;;;;0.37;0.37;;;4.10;99.90;;;;;;4991887;28;20169;-62
2023/12/06 01:17:14;;;;;;;0.50;0.40;;;4.20;99.90;;;;;;4991877;28;20169;-62
2023/12/06 01:19:40;;;;;;;0.40;0.40;;;4.30;99.90;;;;;;4991928;28;20646;-62
2023/12/06 01:22:05;;;;;;;0.30;0.30;;;4.40;99.90;;;;;;4992222;28;20327;-62
2023/12/06 01:24:31;;;;;;;0.40;0.40;;;4.40;99.90;;;;;;4991736;28;20177;-62
2023/12/06 01:26:57;;;;;;;0.40;0.40;;;4.40;99.90;;;;;;4993286;28;20636;-62
2023/12/06 01:29:22;;;;;;;0.40;0.40;;;4.30;99.90;;;;;;4995310;28;20172;-62
2023/12/06 01:31:48;;;;;;;0.33;0.33;;;4.20;99.90;;;;;;4994959;28;20224;-61
2023/12/06 01:34:13;;;;;;;1.23;0.40;;;4.20;99.90;;;;;;4995541;28;20248;-62
2023/12/06 01:36:39;;;;;;;0.40;0.40;;;4.20;99.90;;;;;;4995409;28;20235;-62
2023/12/06 01:39:05;;;;;;;0.43;0.43;;;4.30;99.90;;;;;;4995299;28;20676;-61
2023/12/06 01:41:30;;;;;;;0.30;0.30;;;4.40;99.90;;;;;;4994979;28;20243;-61
2023/12/06 01:43:56;;;;;;;0.40;0.40;;;4.40;99.90;;;;;;4995261;28;20601;-62
2023/12/06 01:46:22;;;;;;;0.40;0.40;;;4.40;99.90;;;;;;4995328;28;20184;-62
2023/12/06 01:48:48;;;;;;;0.30;0.30;;;4.40;99.90;;;;;;4995290;28;20181;-62
2023/12/06 01:51:16;;;;;;;0.40;0.40;;;4.40;99.90;;;;;;4994488;28;20188;-62
2023/12/06 01:53:42;;;;;;;0.40;0.40;;;4.30;99.90;;;;;;4994852;28;20172;-62
2023/12/06 01:56:10;;;;;;;0.40;0.40;;;4.10;99.90;;;;;;4994890;28;20179;-62
2023/12/06 01:58:38;;;;;;;0.88;0.88;;;4.10;99.90;;;;;;4994684;28;20936;-62
2023/12/06 02:01:05;;;;;;;1.40;1.00;;;4.00;99.90;;;;;;4994455;28;20208;-62
2023/12/06 02:03:32;;;;;;;0.30;0.30;;;4.10;99.90;;;;;;4994667;28;20175;-62
2023/12/06 02:06:00;;;;;;;0.40;0.40;;;4.20;99.90;;;;;;4994547;28;20223;-62
2023/12/06 02:08:26;;;;;;;0.40;0.40;;;4.30;99.90;;;;;;4994556;28;20649;-62
2023/12/06 02:10:52;;;;;;;0.35;0.35;;;4.30;99.90;;;;;;4994020;28;20188;-62
2023/12/06 02:13:17;;;;;;;0.30;0.30;;;4.30;99.90;;;;;;4994846;28;20692;-62
2023/12/06 02:15:44;;;;;;;0.40;0.40;;;4.30;99.90;;;;;;4994460;28;20240;-62
2023/12/06 02:18:10;;;;;;;0.30;0.30;;;4.30;99.90;;;;;;4994328;28;20175;-62
2023/12/06 02:20:36;;;;;;;2.85;0.65;;;4.20;99.90;;;;;;4993950;28;20287;-62
2023/12/06 02:23:04;;;;;;;0.40;0.40;;;4.20;99.90;;;;;;4994203;28;20185;-62
2023/12/06 02:25:30;;;;;;;0.40;0.40;;;4.10;99.90;;;;;;4994178;28;20231;-62
2023/12/06 02:27:57;;;;;;;0.30;0.30;;;4.20;99.90;;;;;;4994355;28;20534;-62
2023/12/06 02:30:23;;;;;;;0.38;0.38;;;4.20;99.90;;;;;;4993757;28;20204;-62
2023/12/06 02:32:49;;;;;;;0.30;0.30;;;4.30;99.90;;;;;;4994126;28;20266;-62
2023/12/06 02:35:21;;;;;;;0.40;0.40;;;4.40;99.90;;;;;;4994511;28;20505;-62
2023/12/06 02:37:49;;;;;;;0.35;0.35;;;4.50;99.90;;;;;;4993661;28;20180;-62
2023/12/06 02:40:16;;;;;;;0.40;0.40;;;4.40;99.90;;;;;;4993297;28;20257;-61
2023/12/06 02:42:42;;;;;;;0.30;0.30;;;4.40;99.90;;;;;;4994148;28;20157;-62
2023/12/06 02:45:08;;;;;;;0.40;0.40;;;4.40;99.90;;;;;;4993979;28;20187;-62
2023/12/06 02:47:33;;;;;;;0.40;0.40;;;4.40;99.90;;;;;;4993856;28;20936;-62
2023/12/06 02:49:59;;;;;;;0.40;0.40;;;4.40;99.90;;;;;;4993416;28;20414;-62
2023/12/06 02:52:25;;;;;;;0.30;0.30;;;4.40;99.90;;;;;;4993727;28;20192;-62
2023/12/06 02:54:50;;;;;;;0.40;0.40;;;4.40;99.90;;;;;;4993748;28;20646;-62
2023/12/06 02:57:16;;;;;;;0.30;0.30;;;4.40;99.90;;;;;;4993720;28;20172;-60
2023/12/06 02:59:41;;;;;;;0.93;0.93;;;4.40;99.90;;;;;;4993941;28;20176;-59
2023/12/06 03:02:07;;;;;;;0.50;0.50;;;4.30;99.90;;;;;;4993689;28;20208;-59
2023/12/06 03:04:33;;;;;;;0.70;0.70;;;4.30;99.90;;;;;;4993801;28;20173;-59
2023/12/06 03:06:58;;;;;;;0.40;0.40;;;4.40;99.90;;;;;;4993766;28;20651;-59
2023/12/06 03:09:24;;;;;;;0.40;0.40;;;4.40;99.90;;;;;;4993364;28;20176;-59
2023/12/06 03:11:49;;;;;;;0.40;0.40;;;4.40;99.90;;;;;;4992958;28;20247;-60
2023/12/06 03:14:15;;;;;;;0.40;0.40;;;4.40;99.90;;;;;;5013148;23;20617;-61
2023/12/06 03:16:41;;;;;;;0.40;0.40;;;4.40;99.90;;;;;;4993277;28;20164;-60
2023/12/06 03:19:06;;;;;;;0.37;0.37;;;4.40;99.90;;;;;;4993114;28;20168;-60
2023/12/06 03:21:32;;;;;;;0.40;0.40;;;4.40;99.90;;;;;;4992620;28;20187;-60
2023/12/06 03:23:58;;;;;;;0.40;0.40;;;4.40;99.90;;;;;;4993037;28;20427;-61
2023/12/06 03:26:23;;;;;;;0.40;0.40;;;4.30;99.90;;;;;;4993212;28;20181;-60
2023/12/06 03:28:49;;;;;;;0.30;0.30;;;4.30;99.90;;;;;;4993077;28;20199;-60
2023/12/06 03:31:14;;;;;;;0.40;0.40;;;4.10;99.90;;;;;;4992707;28;20172;-60
2023/12/06 03:33:40;;;;;;;0.60;0.60;;;4.10;99.90;;;;;;4992919;28;20223;-60
2023/12/06 03:36:09;;;;;;;0.40;0.40;;;4.10;99.90;;;;;;4992800;28;20247;-59
2023/12/06 03:38:35;;;;;;;0.50;0.50;;;4.10;99.90;;;;;;4992895;28;20303;-60
2023/12/06 03:41:01;;;;;;;1.70;0.50;;;4.00;99.90;;;;;;4992563;28;20255;-61
2023/12/06 03:43:26;;;;;;;0.50;0.50;;;4.00;99.90;;;;;;4992689;28;20744;-60
2023/12/06 03:45:52;;;;;;;2.17;1.53;;;4.00;99.90;;;;;;4992838;28;20175;-60
2023/12/06 03:48:18;;;;;;;0.50;0.50;;;3.90;99.90;;;;;;4992814;28;20322;-60
2023/12/06 03:50:43;;;;;;;0.60;0.60;;;3.90;99.90;;;;;;4990871;28;20180;-60
2023/12/06 03:53:09;;;;;;;0.40;0.40;;;3.90;99.90;;;;;;4992479;28;20204;-60
2023/12/06 03:55:34;;;;;;;0.40;0.40;;;4.10;99.90;;;;;;4992536;28;20179;-60
2023/12/06 03:58:00;;;;;;;0.40;0.40;;;4.00;99.90;;;;;;4992544;28;20516;-60
2023/12/06 04:00:26;;;;;;;0.40;0.40;;;4.10;99.90;;;;;;4992181;28;20217;-60
2023/12/06 04:02:53;;;;;;;0.80;0.80;;;4.20;99.90;;;;;;4992649;28;20190;-60
2023/12/06 04:05:19;;;;;;;0.40;0.40;;;4.10;99.90;;;;;;4992449;28;20176;-61
2023/12/06 04:07:44;;;;;;;0.60;0.60;;;4.20;99.90;;;;;;4992476;28;20263;-60
2023/12/06 04:10:10;;;;;;;1.30;1.13;;;4.20;99.90;;;;;;4991997;28;20173;-60
2023/12/06 04:12:36;;;;;;;0.60;0.60;;;4.30;99.90;;;;;;4992310;28;20204;-60
2023/12/06 04:15:01;;;;;;;10.03;1.27;;;4.30;99.90;;;;;;4991988;28;20204;-59
2023/12/06 04:17:27;;;;;;;0.53;0.53;;;4.30;99.90;;;;;;4991938;28;20191;-60
2023/12/06 04:19:53;;;;;;;2.00;1.33;;;4.40;99.90;;;;;;4991810;28;20474;-59
2023/12/06 04:22:18;;;;;;;1.30;1.23;;;4.40;99.90;;;;;;4992226;28;20550;-59
2023/12/06 04:24:44;;;;;;;1.00;1.00;;;4.50;99.90;;;;;;4991745;28;20201;-60
2023/12/06 04:27:10;;;;;;;0.60;0.60;;;4.40;99.90;;;;;;4991717;28;20187;-60
2023/12/06 04:29:35;;;;;;;0.83;0.83;;;4.30;99.90;;;;;;4991856;28;20204;-61
2023/12/06 04:32:01;;;;;;;0.90;0.90;;;4.30;99.90;;;;;;4991599;28;20959;-60
2023/12/06 04:34:27;;;;;;;2.30;0.73;;;4.30;99.90;;;;;;4991364;28;20199;-60
2023/12/06 04:36:54;;;;;;;0.43;0.43;;;4.40;99.90;;;;;;4991630;28;20642;-61
2023/12/06 04:39:20;;;;;;;0.73;0.73;;;4.40;99.90;;;;;;4992123;28;20196;-60
2023/12/06 04:41:45;;;;;;;0.40;0.40;;;4.40;99.90;;;;;;4991817;28;20274;-60
2023/12/06 04:44:11;;;;;;;0.50;0.50;;;4.40;99.90;;;;;;4992188;28;20283;-60
2023/12/06 04:46:37;;;;;;;0.50;0.50;;;4.40;99.90;;;;;;4992169;28;20168;-60
2023/12/06 04:49:02;;;;;;;0.40;0.40;;;4.40;99.90;;;;;;4992066;28;20176;-61
2023/12/06 04:51:28;;;;;;;1.07;0.77;;;4.50;99.90;;;;;;4992069;28;20223;-61
2023/12/06 04:53:54;;;;;;;0.30;0.30;;;4.50;99.90;;;;;;4991956;28;20716;-60
2023/12/06 04:56:19;;;;;;;0.70;0.60;;;4.50;99.90;;;;;;4974480;28;20199;-61
2023/12/06 04:58:45;;;;;;;0.70;0.70;;;4.40;99.90;;;;;;4991981;28;20893;-60
2023/12/06 05:01:10;;;;;;;0.60;0.60;;;4.40;99.90;;;;;;4991940;28;20225;-60
2023/12/06 05:03:36;;;;;;;1.90;1.17;;;4.40;99.90;;;;;;4995766;28;20193;-60
2023/12/06 05:06:03;;;;;;;0.70;0.70;;;4.30;99.90;;;;;;4996080;28;20649;-61
2023/12/06 05:08:29;;;;;;;0.38;0.38;;;4.40;99.90;;;;;;4978124;28;20176;-60
2023/12/06 05:10:54;;;;;;;1.03;0.70;;;4.30;99.90;;;;;;4995242;28;20665;-60
2023/12/06 05:13:20;;;;;;;0.40;0.40;;;4.30;99.90;;;;;;4995305;28;20207;-60
2023/12/06 05:15:46;;;;;;;0.50;0.50;;;4.30;99.90;;;;;;4995563;28;20411;-60
2023/12/06 05:18:11;;;;;;;0.50;0.50;;;4.40;99.90;;;;;;4995476;28;20546;-60
2023/12/06 05:20:37;;;;;;;0.73;0.73;;;4.40;99.90;;;;;;4995114;28;20177;-60
2023/12/06 05:23:03;;;;;;;0.50;0.50;;;4.40;99.90;;;;;;4978071;28;20199;-61
2023/12/06 05:25:28;;;;;;;0.97;0.97;;;4.30;99.90;;;;;;4995339;28;20652;-60
2023/12/06 05:27:54;;;;;;;0.40;0.40;;;4.30;99.90;;;;;;4995223;28;20180;-60
2023/12/06 05:30:20;;;;;;;0.70;0.70;;;4.30;99.90;;;;;;4994931;28;20255;-61
2023/12/06 05:32:45;;;;;;;0.50;0.50;;;4.30;99.90;;;;;;4995143;28;20231;-60
2023/12/06 05:35:11;;;;;;;0.40;0.40;;;4.30;99.90;;;;;;4995033;28;20207;-60
2023/12/06 05:37:36;;;;;;;0.40;0.40;;;4.20;99.90;;;;;;4995072;28;20173;-61
2023/12/06 05:40:03;;;;;;;0.57;0.57;;;4.20;99.90;;;;;;4994683;28;20176;-60
2023/12/06 05:42:29;;;;;;;0.80;0.70;;;4.10;99.90;;;;;;4977567;28;20201;-60
2023/12/06 05:44:54;;;;;;;0.70;0.70;;;4.20;99.90;;;;;;4994969;28;20196;-60
2023/12/06 05:47:20;;;;;;;0.50;0.50;;;4.20;99.90;;;;;;4994931;28;20172;-60
2023/12/06 05:49:46;;;;;;;0.60;0.60;;;4.20;99.90;;;;;;4994805;28;20168;-60
2023/12/06 05:52:11;;;;;;;0.50;0.50;;;4.20;99.90;;;;;;4994568;28;20242;-60
2023/12/06 05:54:37;;;;;;;0.63;0.63;;;4.10;99.90;;;;;;4995134;28;20661;-60
2023/12/06 05:57:03;;;;;;;1.43;1.00;;;4.10;99.90;;;;;;4994708;28;20180;-60
2023/12/06 05:59:29;;;;;;;0.40;0.40;;;4.20;99.90;;;;;;4994770;28;20176;-60
2023/12/06 06:01:55;;;;;;;0.50;0.50;;;4.20;99.90;;;;;;4994526;28;20200;-60
2023/12/06 06:04:20;;;;;;;0.90;0.90;;;4.10;99.90;;;;;;4994505;28;20447;-60
2023/12/06 06:06:46;;;;;;;2.20;2.10;;;4.00;99.90;;;;;;4994533;28;20897;-60
2023/12/06 06:09:13;;;;;;;0.50;0.50;;;4.00;99.90;;;;;;4994505;28;20183;-60
2023/12/06 06:11:38;;;;;;;0.85;0.60;;;3.90;99.90;;;;;;4976595;28;20454;-60
2023/12/06 06:14:04;;;;;;;0.83;0.80;;;4.00;99.90;;;;;;4993181;28;20231;-59
2023/12/06 06:16:29;;;;;;;0.50;0.50;;;4.00;99.90;;;;;;4994354;28;20534;-60
2023/12/06 06:18:55;;;;;;;1.27;1.17;;;4.00;99.90;;;;;;4994351;28;20246;-60
2023/12/06 06:21:21;;;;;;;0.57;0.57;;;4.00;99.90;;;;;;4994014;28;20208;-60
2023/12/06 06:23:46;;;;;;;0.60;0.50;;;3.90;99.90;;;;;;4994121;28;20192;-60
2023/12/06 06:26:12;;;;;;;0.40;0.40;;;4.00;99.90;;;;;;4994321;28;20540;-60
2023/12/06 06:28:38;;;;;;;1.30;1.20;;;4.00;99.90;;;;;;4994251;28;20355;-60
2023/12/06 06:31:04;;;;;;;0.50;0.50;;;3.80;99.90;;;;;;4993257;28;20503;-60
2023/12/06 06:33:30;;;;;;;0.38;0.38;;;3.80;99.90;;;;;;4993897;28;20750;-60
2023/12/06 06:35:55;;;;;;;0.60;0.60;;;3.90;99.90;;;;;;4994028;28;20259;-60
2023/12/06 06:38:21;;;;;;;0.50;0.50;;;4.00;99.90;;;;;;4994008;28;20420;-60
2023/12/06 06:40:47;;;;;;;0.40;0.40;;;4.10;99.90;;;;;;4993658;28;20172;-60
2023/12/06 06:43:12;;;;;;;2.50;0.87;;;3.90;99.90;;;;;;4993860;28;20200;-60
2023/12/06 06:45:42;;;;;;;1.57;1.47;;;3.80;99.90;;;;;;4993857;28;20180;-60
2023/12/06 06:48:09;;;;;;;0.60;0.52;;;3.90;99.90;;;;;;4993884;28;20211;-60
2023/12/06 06:50:34;;;;;;;0.43;0.43;;;3.90;99.90;;;;;;4993457;28;20254;-60
2023/12/06 06:53:01;;;;;;;0.60;0.60;;;4.00;99.90;;;;;;4993184;28;20200;-60
2023/12/06 06:55:26;;;;;;;0.40;0.40;;;3.90;99.90;;;;;;4992303;28;20176;-60
2023/12/06 06:57:52;;;;;;;0.73;0.70;;;3.80;99.90;;;;;;4993511;28;20176;-60
2023/12/06 07:00:19;;;;;;;0.80;0.63;;;3.70;99.90;;;;;;4993292;28;20524;-60
2023/12/06 07:02:45;;;;;;;0.73;0.73;;;3.60;99.90;;;;;;4993495;28;20172;-59
2023/12/06 07:05:12;;;;;;;0.70;0.70;;;3.60;99.90;;;;;;4993299;28;20216;-60
2023/12/06 07:07:39;;;;;;;0.40;0.40;;;3.60;99.90;;;;;;4993461;28;20164;-60
2023/12/06 07:10:06;;;;;;;0.73;0.73;;;3.80;99.90;;;;;;4993142;28;20188;-60
2023/12/06 07:12:32;;;;;;;0.90;0.90;;;3.90;99.90;;;;;;4993283;28;20200;-61
2023/12/06 07:14:58;;;;;;;0.60;0.60;;;3.90;99.90;;;;;;4993176;28;20212;-60
2023/12/06 07:17:25;;;;;;;0.50;0.50;;;3.80;99.90;;;;;;4993296;28;20173;-60
2023/12/06 07:19:50;;;;;;;0.88;0.88;;;3.80;99.90;;;;;;4993016;28;20177;-60
2023/12/06 07:22:16;;;;;;;2.07;2.00;;;3.90;99.90;;;;;;4993041;28;20191;-60
2023/12/06 07:24:42;;;;;;;0.67;0.67;;;3.90;99.90;;;;;;4992998;28;20200;-60
2023/12/06 07:27:08;;;;;;;0.40;0.40;;;3.90;99.90;;;;;;4993202;28;20675;-60
2023/12/06 07:29:36;;;;;;;0.50;0.40;;;3.90;99.90;;;;;;4991666;28;20175;-60
2023/12/06 07:32:01;;;;;;;1.10;0.88;;;3.70;99.90;;;;;;4992601;28;20207;-61
2023/12/06 07:34:27;;;;;;;0.50;0.50;;;3.70;99.90;;;;;;4992839;28;20270;-61
2023/12/06 07:36:53;;;;;;;0.40;0.40;;;3.70;99.90;;;;;;4992963;28;20259;-60
2023/12/06 07:39:19;;;;;;;1.23;0.73;;;3.70;99.90;;;;;;4993025;28;20259;-60
2023/12/06 07:41:46;;;;;;;0.93;0.93;;;3.90;99.90;;;;;;4990632;28;20180;-61
2023/12/06 07:44:11;;;;;;;0.40;0.40;;;4.10;99.90;;;;;;4992586;28;20215;-59
2023/12/06 07:46:37;;;;;;;0.60;0.60;;;4.20;99.90;;;;;;4992525;28;20605;-61
2023/12/06 07:49:03;;;;;;;0.50;0.50;;;4.10;99.90;;;;;;4992647;28;20408;-61
2023/12/06 07:51:29;;;;;;;0.93;0.93;;;4.00;99.90;;;;;;4992434;28;20549;-60
2023/12/06 07:53:56;;;;;;;0.70;0.70;;;4.10;99.90;;;;;;4992499;28;20204;-60
2023/12/06 07:56:22;;;;;;;0.57;0.57;;;4.20;99.90;;;;;;4992613;28;20291;-61
2023/12/06 07:58:51;;;;;;;0.50;0.50;;;4.20;99.90;;;;;;4992503;28;20212;-60
2023/12/06 08:01:16;;;;;;;0.30;0.30;;;4.10;99.90;;;;;;4992185;28;20255;-60
2023/12/06 08:03:44;;;;;;;0.40;0.40;;;4.10;99.90;;;;;;4992373;28;20282;-60
2023/12/06 08:06:12;;;;;;;0.40;0.40;;;4.10;99.90;;;;;;4992632;28;20411;-60
2023/12/06 08:08:37;;;;;;;0.45;0.45;;;4.20;99.90;;;;;;4974973;28;20677;-60
2023/12/06 08:11:04;;;;;;;0.60;0.60;;;4.30;99.90;;;;;;4992093;28;20267;-60
2023/12/06 08:13:29;;;;;;;0.90;0.90;;;4.30;99.90;;;;;;4992146;28;20290;-59
2023/12/06 08:15:55;;;;;;;0.30;0.30;;;4.30;99.90;;;;;;4992378;28;20801;-60
2023/12/06 08:18:21;;;;;;;0.60;0.60;;;4.40;99.90;;;;;;4992320;28;20259;-60
2023/12/06 08:20:46;;;;;;;0.30;0.30;;;4.50;99.90;;;;;;4991987;28;20165;-60
2023/12/06 08:23:12;;;;;;;0.60;0.60;;;4.60;99.90;;;;;;4992379;28;20204;-59
2023/12/06 08:25:39;;;;;;;0.53;0.50;;;4.60;99.90;;;;;;4991296;28;20190;-60
2023/12/06 08:28:04;;;;;;;0.40;0.40;;;4.50;99.90;;;;;;4992017;28;20547;-54
2023/12/06 08:30:32;;;;;;;0.77;0.77;;;4.60;99.90;;;;;;4992017;28;20185;-48
2023/12/06 08:32:58;;;;;;;0.60;0.60;;;5.40;99.90;;;;;;4992201;28;20195;-54
2023/12/06 08:35:23;;;;;;;0.60;0.60;;;6.40;99.90;;;;;;4992398;28;20174;-49
2023/12/06 08:37:49;;;;;;;0.70;0.70;;;7.40;99.90;;;;;;4995487;28;20175;-53
2023/12/06 08:40:15;;;;;;;0.63;0.63;;;8.20;99.90;;;;;;4996127;28;20180;-60
2023/12/06 08:42:41;;;;;;;0.30;0.30;;;8.80;98.90;;;;;;4995638;28;20529;-60
2023/12/06 08:45:09;;;;;;;7.60;1.23;;;8.90;95.30;;;;;;4995878;28;20527;-60
2023/12/06 08:47:35;;;;;;;0.40;0.40;;;8.40;94.80;;;;;;4995952;28;20642;-60
2023/12/06 08:50:04;;;;;;;0.40;0.40;;;7.80;94.50;;;;;;4995420;28;20215;-60
2023/12/06 08:52:30;;;;;;;0.30;0.30;;;7.20;94.70;;;;;;4995846;28;20215;-59
2023/12/06 08:54:55;;;;;;;0.60;0.60;;;6.60;95.50;;;;;;4995845;28;20616;-59
2023/12/06 08:57:21;;;;;;;0.60;0.60;;;6.10;96.20;;;;;;4995876;28;20202;-60
2023/12/06 08:59:47;;;;;;;0.53;0.50;;;5.70;96.80;;;;;;4995641;28;20556;-62
2023/12/06 09:02:12;;;;;;;0.50;0.50;;;5.50;97.50;;;;;;4995574;28;20187;-61
2023/12/06 09:04:38;;;;;;;0.30;0.30;;;5.50;97.90;;;;;;4995711;28;20271;-59
2023/12/06 09:07:04;;;;;;;0.50;0.50;;;5.60;98.20;;;;;;4995745;28;20621;-59
2023/12/06 09:09:30;;;;;;;0.30;0.30;;;5.60;98.20;;;;;;4995699;28;20209;-58
2023/12/06 09:11:56;;;;;;;0.40;0.40;;;5.70;98.10;;;;;;4995202;28;20194;-61
2023/12/06 09:14:23;;;;;;;0.40;0.40;;;5.80;98.30;;;;;;4994991;28;20227;-60
2023/12/06 09:16:48;;;;;;;0.40;0.40;;;5.90;97.90;;;;;;5015873;22;20232;-60
2023/12/06 09:19:14;;;;;;;0.50;0.40;;;6.00;98.10;;;;;;4976035;28;20186;-60
2023/12/06 09:21:44;;;;;;;0.30;0.30;;;6.20;97.90;;;;;;4975668;28;20653;-60
2023/12/06 09:24:10;;;;;;;0.50;0.40;;;6.10;97.10;;;;;;4976028;28;20266;-61
2023/12/06 09:26:40;;;;;;;0.30;0.30;;;6.20;97.40;;;;;;4976070;28;20208;-60
2023/12/06 09:29:09;;;;;;;0.30;0.30;;;6.10;97.00;;;;;;4975528;28;20178;-60
2023/12/06 09:31:35;;;;;;;0.30;0.30;;;5.80;97.10;;;;;;4975433;28;20679;-60
2023/12/06 09:34:02;;;;;;;0.30;0.30;;;5.40;97.50;;;;;;4975788;28;20189;-59
2023/12/06 09:36:29;;;;;;;0.30;0.30;;;5.20;98.30;;;;;;4975574;28;20195;-60
2023/12/06 09:38:58;;;;;;;0.65;0.40;;;5.20;98.80;;;;;;4975874;28;20181;-60
2023/12/06 09:41:29;;;;;;;0.32;0.32;;;5.40;98.50;;;;;;4975431;28;20591;-61
2023/12/06 09:43:56;;;;;;;0.55;0.55;;;5.40;98.40;;;;;;4975692;28;20192;-60
2023/12/06 09:46:22;;;;;;;0.52;0.52;;;5.30;98.30;;;;;;4975488;28;20229;-61
2023/12/06 09:48:48;;;;;;;0.45;0.45;;;5.20;98.70;;;;;;4975311;28;20680;-60
2023/12/06 09:51:17;;;;;;;0.33;0.33;;;5.20;98.70;;;;;;4975127;28;20176;-60
2023/12/06 09:53:44;;;;;;;0.40;0.40;;;5.10;98.80;;;;;;4975449;28;20520;-61
2023/12/06 09:56:10;;;;;;;0.40;0.40;;;5.00;98.90;;;;;;4977508;28;20196;-59
2023/12/06 09:58:36;;;;;;;0.30;0.30;;;5.00;99.20;;;;;;4981991;28;20207;-61
2023/12/06 10:01:03;;;;;;;0.30;0.30;;;5.10;99.30;;;;;;4994457;28;20202;-60
2023/12/06 10:03:28;;;;;;;1.15;0.40;;;5.00;99.20;;;;;;4988269;28;20426;-61
2023/12/06 10:05:56;;;;;;;0.30;0.30;;;5.10;99.40;;;;;;4994783;28;20198;-60
2023/12/06 10:08:22;;;;;;;0.40;0.40;;;5.20;99.30;;;;;;4994898;28;20191;-60
2023/12/06 10:10:48;;;;;;;0.40;0.40;;;5.20;99.10;;;;;;4993003;28;20190;-60
2023/12/06 10:13:13;;;;;;;0.40;0.40;;;5.00;98.90;;;;;;4994491;28;20196;-61
2023/12/06 10:15:39;;;;;;;0.30;0.30;;;4.90;99.10;;;;;;4993837;28;20741;-60
2023/12/06 10:18:05;;;;;;;0.30;0.30;;;5.00;99.70;;;;;;4994285;28;20183;-60
2023/12/06 10:20:31;;;;;;;0.40;0.40;;;5.10;99.70;;;;;;4994153;28;20466;-60
2023/12/06 10:22:57;;;;;;;0.60;0.60;;;5.20;99.50;;;;;;4994157;28;20410;-60
2023/12/06 10:25:22;;;;;;;0.40;0.40;;;5.20;99.30;;;;;;4994494;28;20676;-60
2023/12/06 10:27:48;;;;;;;0.40;0.40;;;5.40;99.10;;;;;;4994597;28;20183;-60
2023/12/06 10:30:22;;;;;;;0.40;0.40;;;5.50;98.80;;;;;;4993634;28;20195;-60
2023/12/06 10:32:50;;;;;;;0.40;0.40;;;5.60;98.60;;;;;;4994007;28;20256;-60
2023/12/06 10:35:18;;;;;;;0.40;0.40;;;5.50;98.50;;;;;;4994025;28;20188;-61
2023/12/06 10:37:46;;;;;;;0.75;0.75;;;5.40;98.50;;;;;;4994070;28;20176;-60
2023/12/06 10:40:14;;;;;;;0.40;0.40;;;5.40;98.60;;;;;;4993810;28;20200;-61
2023/12/06 10:42:45;;;;;;;0.40;0.40;;;5.30;98.60;;;;;;4994029;28;20207;-60
2023/12/06 10:45:11;;;;;;;0.70;0.40;;;5.20;98.80;;;;;;4993477;28;20185;-61
2023/12/06 10:47:40;;;;;;;0.40;0.40;;;5.30;99.00;;;;;;4994105;28;20176;-60
2023/12/06 10:50:07;;;;;;;0.40;0.40;;;5.40;99.00;;;;;;4992924;28;20178;-61
2023/12/06 10:52:35;;;;;;;0.47;0.47;;;5.50;98.70;;;;;;4993673;28;20241;-61
2023/12/06 10:55:03;;;;;;;0.40;0.40;;;5.60;98.90;;;;;;4993808;28;20182;-61
2023/12/06 10:57:30;;;;;;;0.30;0.30;;;5.60;98.60;;;;;;4993660;28;20186;-61
2023/12/06 10:59:57;;;;;;;0.30;0.30;;;5.70;98.50;;;;;;4992771;28;20188;-61
2023/12/06 11:02:23;;;;;;;0.35;0.35;;;5.50;98.20;;;;;;4994260;28;20552;-61
2023/12/06 11:04:53;;;;;;;0.50;0.50;;;5.40;98.50;;;;;;4993542;28;20172;-61
2023/12/06 11:07:52;;;;;;;0.95;0.55;;;5.50;98.50;;;;;;4993545;28;20199;-61
2023/12/06 11:10:49;;;;;;;0.40;0.40;;;5.60;98.70;;;;;;4993243;28;20644;-61
2023/12/06 11:13:44;;;;;;;0.35;0.35;;;5.80;98.70;;;;;;4993367;28;20265;-60
2023/12/06 11:16:39;;;;;;;0.47;0.47;;;5.90;98.50;;;;;;4993190;28;20257;-60
2023/12/06 11:19:05;;;;;;;0.40;0.40;;;6.00;98.20;;;;;;4993351;28;20177;-61
2023/12/06 11:21:32;;;;;;;0.50;0.50;;;6.00;97.80;;;;;;4993043;28;20169;-61
2023/12/06 11:23:59;;;;;;;0.40;0.40;;;6.00;97.60;;;;;;4993351;28;20608;-60
2023/12/06 11:26:26;;;;;;;0.40;0.40;;;5.80;97.60;;;;;;4993310;28;20308;-61
2023/12/06 11:28:54;;;;;;;0.60;0.60;;;5.80;97.80;;;;;;4993134;28;20206;-61
2023/12/06 11:31:20;;;;;;;0.30;0.30;;;5.90;98.00;;;;;;4992901;28;20173;-61
2023/12/06 11:33:56;;;;;;;0.40;0.40;;;5.80;97.80;;;;;;4993070;28;20206;-61
2023/12/06 11:36:24;;;;;;;0.40;0.40;;;5.80;98.20;;;;;;4992917;28;20230;-60
2023/12/06 11:38:50;;;;;;;0.30;0.30;;;5.90;98.10;;;;;;4992939;28;20670;-60
2023/12/06 11:41:16;;;;;;;0.30;0.30;;;6.00;98.10;;;;;;4992515;28;20183;-61
2023/12/06 11:43:50;;;;;;;0.63;0.50;;;6.00;97.90;;;;;;4993139;28;20422;-61
2023/12/06 11:46:17;;;;;;;0.40;0.40;;;5.80;97.60;;;;;;4992834;28;20625;-60
2023/12/06 11:48:46;;;;;;;0.30;0.30;;;5.90;98.00;;;;;;4992917;28;20199;-60
2023/12/06 11:51:19;;;;;;;0.60;0.60;;;6.10;98.10;;;;;;4992445;28;20261;-60
2023/12/06 11:53:46;;;;;;;0.30;0.30;;;6.20;98.00;;;;;;4992613;28;20341;-60
2023/12/06 11:56:11;;;;;;;0.50;0.40;;;6.20;97.60;;;;;;4992643;28;20677;-60
2023/12/06 11:58:38;;;;;;;0.80;0.43;;;6.40;97.60;;;;;;4992803;28;20172;-61
2023/12/06 12:01:04;;;;;;;0.70;0.70;;;6.40;97.60;;;;;;4973031;28;20171;-60
2023/12/06 12:03:33;;;;;;;0.40;0.40;;;6.40;97.70;;;;;;4975797;28;20692;-60
2023/12/06 12:05:59;;;;;;;0.40;0.40;;;6.50;97.50;;;;;;4973166;28;20215;-60
2023/12/06 12:08:28;;;;;;;0.50;0.50;;;6.30;96.90;;;;;;4972957;28;20190;-60
2023/12/06 12:10:54;;;;;;;0.40;0.40;;;6.00;97.30;;;;;;4971977;28;20195;-60
2023/12/06 12:13:25;;;;;;;0.53;0.53;;;6.00;97.70;;;;;;4972879;28;20246;-60
2023/12/06 12:15:55;;;;;;;0.30;0.30;;;6.10;97.90;;;;;;4972494;28;20208;-60
2023/12/06 12:18:21;;;;;;;0.60;0.60;;;6.20;97.60;;;;;;4973000;28;20182;-60
2023/12/06 12:20:47;;;;;;;0.75;0.75;;;6.20;97.40;;;;;;4975072;28;20342;-61
2023/12/06 12:23:13;;;;;;;2.00;1.87;;;6.40;97.50;;;;;;4973124;28;20278;-60
2023/12/06 12:25:50;;;;;;;0.93;0.93;;;6.20;97.10;;;;;;4972861;28;20287;-60
2023/12/06 12:28:17;;;;;;;0.70;0.70;;;6.10;97.30;;;;;;4972883;28;20593;-60
2023/12/06 12:30:43;;;;;;;0.38;0.38;;;6.10;97.60;;;;;;4972618;28;20700;-60
2023/12/06 12:33:11;;;;;;;0.50;0.50;;;6.10;97.80;;;;;;4972792;28;20207;-60
2023/12/06 12:35:37;;;;;;;0.43;0.43;;;6.20;97.90;;;;;;4972625;28;20218;-59
2023/12/06 12:38:03;;;;;;;0.50;0.50;;;6.20;97.70;;;;;;4972823;28;20248;-61
2023/12/06 12:40:29;;;;;;;0.55;0.50;;;6.20;97.40;;;;;;4972412;28;20400;-63
2023/12/06 12:42:56;;;;;;;0.40;0.40;;;6.40;97.90;;;;;;4972785;28;20648;-63
2023/12/06 12:45:21;;;;;;;0.30;0.30;;;6.50;97.50;;;;;;4972744;28;20230;-61
2023/12/06 12:47:47;;;;;;;0.80;0.80;;;6.70;97.20;;;;;;4972768;28;20185;-61
2023/12/06 12:50:21;;;;;;;0.50;0.50;;;6.70;96.90;;;;;;4972437;28;20196;-61
2023/12/06 12:52:49;;;;;;;0.60;0.50;;;6.80;97.00;;;;;;4972768;28;20838;-61
2023/12/06 12:55:18;;;;;;;2.50;0.95;;;6.80;97.10;;;;;;4972692;28;20209;-61